x

8419317 - Wells, Me (welm1) Weather Station

8:18pm - Wed 23rd Jan 2019 All times are EST. -5 hours from GMT.

  • Wind
    10mph, 15mph gusts
  • Sea Temp 32°f
  • Air Temp 40°f
  • Sea Pressure 1014.6mb
  • 8419317 - Wells, Me
  • 8419317 - Wells, Me

More Historic Weather Station data

Upgrade to MSW Pro to gain access to the past 30 days of data for over 8000 Wavebouys and Weather Stations around the globe.

Join

Comparision Forecast

View Surf forecast
   
Wed 01/23 8:18pm 10 15 mph 1014.6mb 32f 40f
8:12pm 8 14 mph 1014.7mb 32f 40f
8:06pm 9 14 mph 1015mb 32f 40f
8:00pm 11 18 mph 1014.9mb 32f 40f
7:54pm 13 16 mph 1015mb 32f 40f
7:48pm 13 18 mph 1015mb 32f 40f
7:42pm 14 17 mph 1015.3mb 33f 40f
7:36pm 10 18 mph 1015.4mb 33f 39f
7:30pm 11 15 mph 1015.6mb 33f 39f
7:24pm 10 17 mph 1015.6mb 33f 40f
7:18pm 10 17 mph 1015.8mb 34f 39f
7:12pm 11 15 mph 1015.7mb 34f 40f
7:06pm 13 15 mph 1015.6mb 34f 40f
7:00pm 13 16 mph 1015.9mb 34f 40f
6:30pm 11 20 mph 1016.2mb 34f 39f
6:24pm 11 15 mph 1016.3mb 34f 39f
6:18pm 11 15 mph 1016.5mb 34f 38f
6:12pm 10 15 mph 1016.3mb 34f 39f
6:06pm 13 17 mph 1016.7mb 34f 39f
6:00pm 11 14 mph 1016.6mb 34f 39f
5:54pm 11 16 mph 1016.7mb 34f 38f
5:48pm 14 16 mph 1016.9mb 34f 38f
5:42pm 13 16 mph 1016.5mb 34f 38f
5:36pm 13 17 mph 1016.9mb 34f 38f
5:30pm 14 16 mph 1016.8mb 34f 38f
5:24pm 14 16 mph 1016.8mb 34f 38f
5:18pm 13 15 mph 1016.7mb 35f 38f
5:12pm 10 14 mph 1016.8mb 35f 39f
5:06pm 13 16 mph 1017mb 35f 39f
5:00pm 9 11 mph 1017.2mb 35f 39f
4:54pm 9 13 mph 1017.3mb 35f 39f
4:48pm 9 11 mph 1017.4mb 35f 39f
4:42pm 9 11 mph 1017.3mb 35f 39f
4:36pm 10 15 mph 1017.4mb 35f 39f
4:30pm 9 13 mph 1017.6mb 35f 39f
4:24pm 10 14 mph 1017.7mb 35f 38f
4:18pm 8 11 mph 1017.6mb 35f 38f
4:12pm 7 11 mph 1017.7mb 35f 38f
4:06pm 7 9 mph 1017.9mb 35f 39f
4:00pm 6 9 mph 1018.1mb 35f 39f
3:30pm 5 6 mph 1018.3mb 35f 37f
3:24pm 3 6 mph 1018.4mb 35f 37f
3:18pm 5 6 mph 1018.5mb 35f 37f
3:12pm 3 6 mph 1018.7mb 35f 36f
3:06pm 6 8 mph 1018.7mb 35f 36f
3:00pm 7 10 mph 1018.8mb 35f 36f
2:54pm 8 10 mph 1018.9mb 35f 37f
2:48pm 6 8 mph 1019mb 35f 37f
2:42pm 6 8 mph 1019.2mb 36f 37f
2:36pm 3 7 mph 1019.4mb 36f 37f
2:30pm 6 9 mph 1019.4mb 36f 37f
2:24pm 8 14 mph 1019.4mb 36f 36f
2:18pm 10 15 mph 1019.6mb 36f 36f
2:12pm 9 13 mph 1019.6mb 36f 36f
2:06pm 9 14 mph 1019.4mb 36f 35f
2:00pm 7 15 mph 1019.2mb 36f 35f
1:54pm 8 13 mph 1019.5mb 37f 35f
1:48pm 8 13 mph 1019.7mb 37f 35f
1:42pm 8 14 mph 1020mb 37f 35f
1:36pm 9 14 mph 1020.1mb 37f 35f
1:30pm 10 17 mph 1020.2mb 37f 35f
1:24pm 8 14 mph 1020.2mb 37f 35f
1:18pm 11 17 mph 1020.4mb 37f 35f
1:12pm 10 16 mph 1020.4mb 37f 35f
1:06pm 9 14 mph 1020.5mb 37f 35f
1:00pm 9 11 mph 1020.6mb 37f 35f
12:54pm 10 15 mph 1020.7mb 37f 35f
12:48pm 11 18 mph 1020.6mb 37f 34f
12:42pm 13 17 mph 1020.5mb 37f 34f
12:36pm 11 17 mph 1020.7mb 37f 34f
12:30pm 17 21 mph 1020.9mb 37f 34f
12:24pm 11 16 mph 1021.1mb 37f 34f
12:18pm 14 17 mph 1021.2mb 37f 33f
12:12pm 11 16 mph 1021.5mb 37f 33f
12:06pm 14 17 mph 1021.8mb 37f 33f
12:00pm 11 16 mph 1022.1mb 37f 33f
11:54am 11 15 mph 1022.3mb 37f 32f
11:48am 14 18 mph 1022.5mb 37f 32f
11:42am 13 17 mph 1022.6mb 37f 32f
11:36am 10 14 mph 1022.6mb 37f 32f
11:30am 11 14 mph 1022.8mb 37f 31f
11:24am 11 14 mph 1022.9mb 37f 31f
11:18am 14 15 mph 1023.1mb 37f 31f
11:12am 9 14 mph 1023.4mb 37f 31f
11:06am 16 21 mph 1023.6mb 37f 30f
11:00am 11 15 mph 1023.8mb 37f 30f
10:54am 13 17 mph 1024mb 37f 30f
10:48am 14 16 mph 1024.2mb 37f 30f
10:42am 15 18 mph 1024.3mb 37f 30f
10:36am 13 20 mph 1024.4mb 37f 30f
10:30am 14 18 mph 1024.6mb 37f 30f
10:24am 13 16 mph 1024.9mb 37f 29f
10:18am 11 15 mph 1025.2mb 36f 29f
10:12am 15 20 mph 1025.4mb 36f 29f
10:06am 11 15 mph 1025.6mb 36f 29f
10:00am 14 17 mph 1025.7mb 36f 28f
9:54am 10 16 mph 1025.6mb 36f 28f
9:48am 13 20 mph 1025.6mb 36f 28f
9:42am 17 21 mph 1025.5mb 36f 28f
9:36am 18 21 mph 1025.8mb 35f 28f
9:30am 10 23 mph 1026mb 35f 28f
9:24am 13 21 mph 1026.2mb 35f 28f
9:18am 15 21 mph 1026.3mb 35f 28f
9:12am 14 18 mph 1026.4mb 35f 28f
9:06am 14 18 mph 1026.3mb 35f 28f
9:00am 13 17 mph 1026.6mb 35f 28f
8:54am 11 17 mph 1026.9mb 34f 28f
8:48am 11 21 mph 1026.8mb 32f 28f
8:42am 11 20 mph 1026.8mb 30f 28f
8:36am 14 20 mph 1026.9mb 30f 28f
8:30am 14 20 mph 1027.1mb 30f 28f
8:24am 16 18 mph 1027.1mb 30f 28f
8:18am 15 18 mph 1026.9mb 30f 27f
8:12am 14 16 mph 1026.8mb 30f 27f
8:06am 14 17 mph 1026.9mb 30f 27f
8:00am 13 17 mph 1027.2mb 30f 26f
7:54am 14 16 mph 1027.2mb 30f 26f
7:48am 14 16 mph 1027.3mb 31f 25f
7:42am 13 16 mph 1027.3mb 31f 25f
7:36am 13 15 mph 1027.2mb 31f 25f
7:30am 13 15 mph 1027.2mb 31f 25f
7:24am 13 15 mph 1027.3mb 31f 24f
7:18am 13 16 mph 1027.3mb 31f 24f
7:12am 13 16 mph 1027.6mb 31f 24f
7:06am 14 15 mph 1027.7mb 32f 24f
7:00am 13 14 mph 1027.9mb 32f 24f
6:48am 11 14 mph 1028mb 33f 23f
6:42am 10 14 mph 1028.1mb 33f 23f
6:36am 9 13 mph 1028.3mb 33f 23f
6:30am 7 9 mph 1028.4mb 33f 22f
6:24am 7 9 mph 1028.6mb 33f 22f
6:18am 7 9 mph 1028.7mb 33f 21f
6:12am 7 9 mph 1029mb 33f 20f
6:06am 6 7 mph 1029.1mb 33f 19f
6:00am 7 8 mph 1029.2mb 33f 19f
5:54am 6 7 mph 1029.2mb 33f 19f
5:48am 7 9 mph 1029.2mb 33f 20f
5:42am 6 8 mph 1029.2mb 33f 19f
5:36am 3 5 mph 1029.4mb 33f 18f
5:30am 3 7 mph 1029.5mb 34f 18f
5:24am 3 6 mph 1029.5mb 34f 17f
5:18am 3 5 mph 1029.7mb 34f 17f
5:12am 1 2 mph 1029.8mb 34f 16f
5:06am  -  0 mph 1029.8mb 34f 16f
5:00am  -  2 mph 1029.8mb 34f 15f
4:48am  -  1 mph 1029.9mb 34f 15f
4:42am 1 2 mph 1029.9mb 35f 15f
4:36am 1 2 mph 1030.2mb 35f 15f
4:30am 2 2 mph 1030.3mb 35f 14f
4:24am 2 3 mph 1030.3mb 35f 14f
4:18am 2 3 mph 1030.4mb 35f 14f
4:12am 2 2 mph 1030.4mb 35f 15f
4:06am 1 2 mph 1030.5mb 35f 15f
4:00am 2 3 mph 1030.7mb 36f 15f
3:48am 2 3 mph 1031.1mb 36f 15f
3:42am 3 5 mph 1031.2mb 36f 16f
3:36am 2 3 mph 1031.2mb 36f 16f
3:30am 2 2 mph 1031.3mb 36f 16f
3:24am 2 3 mph 1031.5mb 36f 16f
3:18am 2 3 mph 1031.5mb 36f 17f
3:12am  -  2 mph 1031.5mb 36f 17f
3:06am 2 3 mph 1031.5mb 36f 18f
3:00am 2 3 mph 1031.4mb 36f 18f
2:54am 2 2 mph 1031.4mb 36f 18f
2:48am  -  2 mph 1031.5mb 36f 18f
2:42am 1 6 mph 1031.6mb 36f 18f
2:36am 5 7 mph 1031.3mb 36f 18f
2:30am 5 6 mph 1031.6mb 36f 18f
2:24am 2 6 mph 1031.8mb 36f 18f
2:18am 3 6 mph 1031.9mb 36f 18f
2:12am 2 7 mph 1031.9mb 36f 18f
2:06am 6 6 mph 1032mb 36f 18f
2:00am 5 7 mph 1032mb 36f 19f
1:54am 6 7 mph 1032mb 36f 19f
1:48am 5 7 mph 1032.3mb 36f 18f
1:42am 3 5 mph 1032.4mb 37f 18f
1:36am 2 5 mph 1032.4mb 37f 18f
1:30am 1 3 mph 1032.5mb 37f 18f
1:24am 2 6 mph 1032.7mb 37f 17f
1:18am 2 5 mph 1032.7mb 37f 17f
1:12am 2 6 mph 1032.6mb 37f 17f
1:06am 3 6 mph 1032.8mb 37f 17f
1:00am 3 5 mph 1032.8mb 37f 17f
12:30am 2 5 mph 1033.2mb 37f 18f
12:24am 2 3 mph 1033.5mb 37f 18f
12:18am 1 3 mph 1033.6mb 37f 18f
12:12am 3 6 mph 1033.7mb 37f 18f
12:06am 2 6 mph 1033.7mb 37f 18f
12:00am 3 6 mph 1033.7mb 37f 18f
Tue 01/22 11:30pm 6 9 mph 1034.1mb 37f 18f
11:24pm 5 9 mph 1034.1mb 37f 18f
11:18pm 6 9 mph 1034.1mb 37f 18f
11:12pm 5 8 mph 1033.7mb 37f 18f
11:06pm 5 7 mph 1033.7mb 37f 18f
11:00pm 5 7 mph 1033.6mb 37f 18f
10:54pm 5 7 mph 1033.7mb 37f 18f
10:48pm 3 6 mph 1033.8mb 37f 17f
10:42pm 3 6 mph 1033.9mb 37f 17f
10:36pm 2 6 mph 1033.9mb 37f 17f
10:30pm 3 6 mph 1033.9mb 37f 18f
10:24pm 3 6 mph 1034mb 37f 18f
10:18pm 3 7 mph 1034.1mb 37f 18f
10:12pm 5 6 mph 1034.1mb 37f 18f
10:06pm 5 8 mph 1034.2mb 36f 18f
10:00pm 6 8 mph 1034.2mb 36f 18f
9:54pm 5 7 mph 1034.1mb 36f 18f
9:48pm 5 7 mph 1034.1mb 36f 18f
9:42pm 5 7 mph 1034.1mb 36f 18f
9:36pm 5 8 mph 1033.9mb 35f 18f
9:30pm 6 8 mph 1033.9mb 35f 18f
9:24pm 6 8 mph 1034mb 35f 18f
9:18pm 5 7 mph 1034mb 34f 18f
9:12pm 5 6 mph 1034mb 33f 18f
9:06pm 3 7 mph 1033.9mb 31f 18f
9:00pm 3 5 mph 1034mb 30f 18f
8:54pm 2 5 mph 1034.1mb 30f 18f
8:48pm 3 9 mph 1034.2mb 30f 18f
8:42pm 7 10 mph 1033.9mb 30f 19f
8:36pm 8 11 mph 1033.9mb 30f 18f
8:30pm 6 9 mph 1034.1mb 30f 18f
8:24pm 6 8 mph 1034.2mb 30f 18f
8:18pm 3 5 mph 1034.4mb 30f 18f
8:12pm 2 3 mph 1034.3mb 30f 18f
8:06pm  -  2 mph 1034.3mb 30f 19f
8:00pm  -  5 mph 1034.4mb 30f 18f
7:54pm 2 5 mph 1034.5mb 31f 18f
7:48pm 2 5 mph 1034.5mb 31f 18f
7:42pm 3 7 mph 1034.5mb 31f 18f
7:36pm 3 6 mph 1034.3mb 31f 18f
7:30pm 5 6 mph 1034.3mb 31f 18f
7:24pm 5 6 mph 1034.2mb 31f 18f
7:18pm 3 5 mph 1034.2mb 31f 18f
7:12pm 5 6 mph 1034.1mb 31f 18f
7:06pm 3 3 mph 1034.1mb 31f 18f
7:00pm 1 3 mph 1034.2mb 31f 18f
6:54pm 1 6 mph 1034.3mb 32f 18f
6:48pm 5 9 mph 1034.2mb 32f 18f
6:42pm 6 7 mph 1034.2mb 32f 18f
6:36pm 6 9 mph 1034.4mb 32f 19f
6:30pm 5 9 mph 1034.5mb 32f 19f
6:24pm 6 8 mph 1034.3mb 32f 19f
6:18pm 7 9 mph 1034.3mb 32f 19f
6:12pm 5 9 mph 1034.3mb 32f 19f
6:06pm 7 9 mph 1034.2mb 32f 19f
6:00pm 7 9 mph 1034.2mb 32f 19f
5:54pm 6 8 mph 1034.1mb 32f 19f
5:48pm 7 8 mph 1034mb 32f 20f
5:42pm 5 7 mph 1033.8mb 32f 20f
5:36pm 3 8 mph 1033.5mb 32f 20f
5:30pm 5 7 mph 1033.7mb 32f 20f
5:24pm 5 9 mph 1033.6mb 32f 20f
5:18pm 7 9 mph 1033.6mb 32f 20f
5:12pm 6 8 mph 1033.5mb 32f 20f
5:06pm 7 8 mph 1033.5mb 33f 21f
5:00pm 5 6 mph 1033.5mb 33f 21f
4:54pm 3 6 mph 1033.3mb 33f 21f
4:48pm 5 6 mph 1033mb 33f 21f
4:42pm 5 9 mph 1032.9mb 33f 22f
4:36pm 7 10 mph 1032.9mb 33f 22f
4:30pm 7 11 mph 1032.8mb 33f 22f
4:24pm 6 14 mph 1032.9mb 33f 22f
4:18pm 14 20 mph 1032.8mb 33f 23f
4:12pm 9 14 mph 1032.9mb 33f 22f
4:06pm 10 16 mph 1033mb 34f 23f
4:00pm 7 11 mph 1032.8mb 34f 23f
3:54pm 7 10 mph 1032.9mb 34f 23f
3:48pm 5 9 mph 1032.8mb 35f 23f
3:42pm 6 9 mph 1032.8mb 35f 23f
3:36pm 7 13 mph 1032.7mb 35f 23f
3:30pm 8 11 mph 1032.5mb 35f 24f
3:24pm 7 11 mph 1032.5mb 35f 24f
3:18pm 6 10 mph 1032.3mb 35f 24f
3:12pm 6 8 mph 1032.3mb 35f 24f
3:06pm 7 13 mph 1032.1mb 35f 24f
3:00pm 8 14 mph 1031.9mb 35f 24f
2:54pm 8 14 mph 1031.8mb 35f 24f
2:48pm 6 14 mph 1031.5mb 35f 25f
2:42pm 5 9 mph 1031.5mb 35f 25f
2:36pm 8 13 mph 1031.5mb 35f 24f
2:30pm 8 11 mph 1031.4mb 35f 24f
2:24pm 8 13 mph 1031.4mb 35f 24f
2:18pm 10 16 mph 1031.3mb 35f 24f
2:12pm 8 14 mph 1031.2mb 35f 24f
2:06pm 8 16 mph 1031.1mb 35f 24f
2:00pm 6 10 mph 1031mb 35f 24f
1:54pm 7 13 mph 1031mb 35f 24f
1:48pm 9 15 mph 1030.8mb 35f 23f
1:42pm 10 14 mph 1030.8mb 36f 23f
1:36pm 9 17 mph 1030.8mb 36f 23f
1:30pm 10 15 mph 1030.8mb 36f 23f
1:24pm 10 16 mph 1030.9mb 36f 23f
1:18pm 9 17 mph 1031mb 36f 22f
1:12pm 10 16 mph 1031mb 36f 22f
1:06pm 7 14 mph 1030.9mb 36f 23f
1:00pm 8 15 mph 1031.1mb 36f 22f
12:54pm 11 15 mph 1031.1mb 36f 22f
12:48pm 10 15 mph 1031mb 36f 22f
12:42pm 7 13 mph 1030.9mb 36f 22f
12:36pm 6 10 mph 1031mb 36f 22f
12:30pm 9 13 mph 1030.9mb 36f 21f
12:24pm 8 15 mph 1030.8mb 36f 21f
12:18pm 11 15 mph 1030.7mb 36f 20f
12:12pm 9 11 mph 1030.7mb 36f 20f
12:06pm 7 11 mph 1030.5mb 36f 20f
12:00pm 8 11 mph 1030.4mb 36f 19f
11:54am 10 13 mph 1030.3mb 36f 19f
11:48am 7 13 mph 1030.5mb 36f 19f
11:42am 7 9 mph 1030.4mb 36f 19f
11:36am 10 14 mph 1030.6mb 36f 19f
11:30am 8 14 mph 1030.7mb 36f 18f
11:24am 10 14 mph 1031mb 36f 18f
11:18am 10 17 mph 1031.1mb 36f 18f
11:12am 14 17 mph 1031mb 36f 18f
11:06am 11 15 mph 1030.9mb 36f 18f
11:00am 11 14 mph 1031mb 36f 17f
10:54am 8 15 mph 1031mb 36f 17f
10:48am 10 15 mph 1031mb 36f 17f
10:42am 14 17 mph 1031mb 36f 16f
10:36am 10 15 mph 1031.1mb 36f 16f
10:30am 7 14 mph 1031mb 36f 16f
10:24am 10 15 mph 1031mb 36f 15f
10:18am 6 9 mph 1030.9mb 36f 15f
10:12am 6 14 mph 1030.7mb 36f 15f
10:06am 9 15 mph 1030.6mb 35f 14f
10:00am 10 15 mph 1030.3mb 35f 14f
9:54am 6 8 mph 1030.1mb 35f 13f
9:48am 8 13 mph 1030.1mb 35f 12f
9:42am 8 11 mph 1030.2mb 35f 11f
9:36am 8 14 mph 1030.1mb 35f 11f
9:30am 9 15 mph 1030.1mb 35f 10f
9:24am 8 15 mph 1030.1mb 35f 10f
9:18am 7 13 mph 1030.1mb 35f 10f
9:12am 9 15 mph 1030.2mb 35f 9f
9:06am 10 16 mph 1029.9mb 35f 9f
9:00am 11 15 mph 1029.8mb 35f 8f
8:54am 10 14 mph 1029.5mb 35f 8f
8:48am 6 10 mph 1029.7mb 35f 7f
8:42am 8 10 mph 1029.7mb 35f 7f
8:36am 7 9 mph 1029.5mb 35f 7f
8:30am 6 10 mph 1029.4mb 34f 6f
8:24am 6 9 mph 1029.3mb 33f 6f
8:18am 5 7 mph 1029.4mb 33f 6f
8:12am 6 11 mph 1029.3mb 32f 6f
8:06am 9 11 mph 1029.1mb 30f 5f
8:00am 7 10 mph 1028.7mb 29f 6f
7:54am 7 10 mph 1028.6mb 29f 5f
7:48am 8 13 mph 1028.6mb 29f 5f
7:42am 8 10 mph 1028.5mb 29f 5f
7:36am 8 11 mph 1028.2mb 29f 5f
7:30am 8 13 mph 1028mb 29f 5f
7:24am 7 11 mph 1027.7mb 29f 5f
7:18am 7 10 mph 1027.7mb 29f 4f
7:12am 5 9 mph 1027.6mb 29f 4f
7:06am 3 7 mph 1027.2mb 29f 4f
7:00am 5 8 mph 1027.1mb 29f 4f
6:54am 6 9 mph 1026.8mb 29f 4f
6:48am 5 10 mph 1026.5mb 29f 4f
6:42am 6 8 mph 1026.4mb 29f 4f
6:36am 6 11 mph 1026.2mb 29f 4f
6:30am 5 9 mph 1026.2mb 29f 4f
6:24am 5 11 mph 1026.2mb 30f 4f
6:18am 7 14 mph 1026.3mb 30f 4f
6:12am 6 13 mph 1026mb 31f 4f
6:06am 9 14 mph 1025.7mb 31f 4f
6:00am 13 18 mph 1025.4mb 31f 4f
5:54am 10 16 mph 1025.2mb 31f 4f
5:48am 9 15 mph 1025.2mb 32f 4f
5:42am 3 10 mph 1025mb 32f 4f
5:36am 8 14 mph 1024.8mb 32f 4f
5:30am 6 13 mph 1024.7mb 32f 4f
5:24am 9 13 mph 1024.4mb 32f 4f
5:18am 8 14 mph 1024.4mb 32f 4f
5:12am 11 15 mph 1024.1mb 32f 4f
5:06am 10 17 mph 1023.9mb 32f 4f
5:00am 11 23 mph 1023.7mb 32f 4f
4:54am 14 22 mph 1023.4mb 32f 4f
4:48am 14 18 mph 1023.2mb 32f 4f
4:42am 14 20 mph 1023.2mb 32f 4f
4:36am 11 20 mph 1023.1mb 32f 4f
4:30am 11 16 mph 1023mb 32f 4f
4:24am 11 18 mph 1022.8mb 32f 4f
4:18am 10 15 mph 1022.6mb 32f 4f
4:12am 10 16 mph 1022.5mb 32f 4f
4:06am 9 16 mph 1022.5mb 32f 4f
4:00am 6 11 mph 1022.3mb 33f 4f
3:54am 7 11 mph 1022.3mb 33f 4f
3:48am 6 13 mph 1022.2mb 33f 5f
3:42am 8 15 mph 1022.1mb 33f 5f
3:36am 10 18 mph 1021.8mb 33f 5f
3:30am 13 21 mph 1021.6mb 33f 5f
3:24am 13 21 mph 1021.5mb 33f 5f
3:18am 9 16 mph 1021.4mb 33f 5f
3:12am 11 18 mph 1021.3mb 33f 5f
3:06am 11 18 mph 1021.3mb 33f 5f
3:00am 14 20 mph 1021.2mb 34f 4f
2:54am 11 16 mph 1021mb 34f 4f
2:48am 10 16 mph 1021mb 34f 4f
2:42am 7 13 mph 1020.9mb 35f 4f
2:36am 8 11 mph 1020.8mb 35f 4f
2:30am 7 10 mph 1020.6mb 35f 4f
2:24am 6 14 mph 1020.6mb 35f 4f
2:18am 10 16 mph 1020.5mb 35f 4f
2:12am 10 17 mph 1020.1mb 35f 4f
2:06am 11 16 mph 1020mb 35f 4f
2:00am 10 15 mph 1019.9mb 35f 4f
1:54am 7 11 mph 1019.9mb 35f 4f
1:48am 11 16 mph 1019.8mb 35f 4f
1:42am 9 15 mph 1019.8mb 35f 4f
1:36am 11 18 mph 1019.6mb 36f 4f
1:30am 10 15 mph 1019.5mb 36f 4f
1:24am 10 18 mph 1019.4mb 36f 4f
1:18am 11 21 mph 1019.4mb 36f 4f
1:12am 11 18 mph 1019.2mb 36f 4f
1:06am 14 18 mph 1018.9mb 36f 4f
1:00am 11 17 mph 1018.8mb 36f 4f
12:54am 14 21 mph 1018.7mb 36f 4f
12:48am 8 17 mph 1018.7mb 36f 4f
12:42am 10 16 mph 1018.7mb 36f 5f
12:36am 10 15 mph 1018.7mb 36f 5f
12:30am 9 15 mph 1018.6mb 36f 4f
12:24am 10 18 mph 1018.5mb 36f 5f
12:18am 8 13 mph 1018.5mb 36f 4f
12:12am 6 15 mph 1018.4mb 36f 4f
12:06am 9 15 mph 1018.3mb 36f 4f
12:00am 8 14 mph 1018.3mb 36f 4f
Mon 01/21 11:54pm 10 16 mph 1018.1mb 36f 4f
11:48pm 10 14 mph 1018mb 36f 4f
11:42pm 11 14 mph 1017.9mb 36f 4f
11:36pm 8 14 mph 1017.8mb 36f 4f
11:30pm 7 13 mph 1017.8mb 36f 4f
11:24pm 8 13 mph 1017.7mb 36f 4f
11:18pm 9 15 mph 1017.5mb 36f 4f
11:12pm 7 13 mph 1017.4mb 36f 4f
11:06pm 10 14 mph 1017.4mb 36f 4f
11:00pm 11 15 mph 1017.3mb 36f 4f
10:54pm 9 16 mph 1017.3mb 36f 4f
10:48pm 9 13 mph 1017.2mb 36f 4f
10:42pm 8 14 mph 1017.1mb 36f 3f
10:36pm 9 20 mph 1017mb 36f 4f
10:30pm 10 15 mph 1016.9mb 36f 4f
10:24pm 9 15 mph 1016.9mb 36f 4f
10:18pm 10 17 mph 1016.7mb 36f 4f
10:12pm 9 17 mph 1016.7mb 36f 4f
10:06pm 8 13 mph 1016.6mb 36f 4f
10:00pm 13 15 mph 1016.5mb 36f 4f
9:54pm 9 16 mph 1016.5mb 36f 4f
9:48pm 10 16 mph 1016.4mb 36f 4f
9:42pm 13 18 mph 1016.2mb 36f 3f
9:36pm 8 16 mph 1016.2mb 36f 4f
9:30pm 10 14 mph 1016.1mb 36f 3f
9:24pm 10 22 mph 1015.9mb 36f 3f
9:18pm 11 20 mph 1015.8mb 36f 3f
9:12pm 10 15 mph 1015.7mb 36f 3f
9:06pm 8 16 mph 1015.7mb 35f 3f
9:00pm 11 15 mph 1015.6mb 35f 3f
8:54pm 11 20 mph 1015.5mb 35f 3f
8:48pm 11 21 mph 1015.4mb 35f 3f
8:42pm 11 17 mph 1015.3mb 35f 2f
8:36pm 13 17 mph 1015.3mb 35f 2f
8:30pm 7 15 mph 1015.2mb 35f 2f
8:24pm 8 17 mph 1015.1mb 34f 2f
8:18pm 11 18 mph 1014.9mb 33f 2f
8:12pm 13 20 mph 1014.6mb 31f 2f
8:06pm 13 17 mph 1014.5mb 29f 2f
8:00pm 11 17 mph 1014.5mb 29f 2f
7:54pm 10 18 mph 1014.5mb 29f 2f
7:48pm 11 20 mph 1014.5mb 29f 2f
7:42pm 9 16 mph 1014.4mb 29f 2f
7:36pm 11 18 mph 1014.3mb 29f 2f
7:30pm 14 20 mph 1014.2mb 29f 2f
7:24pm 11 17 mph 1014.2mb 29f 2f
7:18pm 10 16 mph 1014.1mb 29f 2f
7:12pm 11 14 mph 1014mb 29f 2f
7:06pm 13 16 mph 1013.9mb 29f 2f
7:00pm 10 18 mph 1013.8mb 29f 2f
6:54pm 11 16 mph 1013.7mb 29f 2f
6:48pm 10 17 mph 1013.6mb 29f 2f
6:42pm 11 20 mph 1013.5mb 29f 2f
6:36pm 13 20 mph 1013.4mb 29f 1f
6:30pm 13 20 mph 1013.2mb 29f 2f
6:24pm 11 20 mph 1013.1mb 29f 2f
6:18pm 16 22 mph 1013mb 29f 2f
6:12pm 14 22 mph 1012.9mb 29f 2f
6:06pm 14 22 mph 1012.8mb 30f 2f
6:00pm 14 22 mph 1012.6mb 30f 2f
5:54pm 14 23 mph 1012.4mb 30f 2f
5:48pm 13 17 mph 1012.3mb 31f 2f
5:42pm 10 16 mph 1012.2mb 32f 2f
5:36pm 11 16 mph 1012mb 31f 2f
5:30pm 11 17 mph 1011.9mb 32f 2f
5:24pm 11 20 mph 1011.8mb 32f 2f
5:18pm 14 24 mph 1011.6mb 32f 2f
5:12pm 15 22 mph 1011.4mb 32f 2f
5:06pm 11 22 mph 1011.3mb 32f 2f
5:00pm 15 22 mph 1011mb 32f 2f
4:54pm 16 22 mph 1010.9mb 32f 2f
4:48pm 13 23 mph 1010.7mb 32f 2f
4:42pm 13 23 mph 1010.6mb 33f 2f
4:36pm 10 24 mph 1010.5mb 33f 2f
4:30pm 14 24 mph 1010.3mb 33f 2f
4:24pm 9 16 mph 1010.2mb 33f 3f
4:18pm 13 20 mph 1009.9mb 33f 3f
4:12pm 11 17 mph 1009.8mb 33f 3f
4:06pm 11 18 mph 1009.6mb 33f 3f
4:00pm 13 20 mph 1009.4mb 33f 3f
3:54pm 13 21 mph 1009.3mb 33f 3f
3:48pm 11 17 mph 1009.1mb 34f 3f
3:42pm 13 18 mph 1008.8mb 34f 3f
3:36pm 10 18 mph 1008.7mb 34f 4f
3:30pm 11 25 mph 1008.6mb 34f 4f
3:24pm 15 24 mph 1008.4mb 34f 3f
3:18pm 13 22 mph 1008.4mb 34f 4f
3:12pm 14 17 mph 1008.3mb 34f 4f
3:06pm 14 21 mph 1008.2mb 34f 4f
3:00pm 13 24 mph 1008mb 34f 4f
2:54pm 15 22 mph 1007.9mb 34f 4f
2:48pm 13 24 mph 1007.9mb 34f 4f
2:42pm 15 23 mph 1007.7mb 34f 4f
2:36pm 15 25 mph 1007.5mb 34f 4f
2:30pm 16 24 mph 1007.5mb 34f 4f
2:24pm 14 20 mph 1007.3mb 35f 4f
2:18pm 13 18 mph 1007.3mb 35f 4f
2:12pm 10 18 mph 1007.2mb 35f 5f
2:06pm 13 20 mph 1007.1mb 36f 4f
2:00pm 13 21 mph 1006.9mb 36f 4f
1:54pm 11 21 mph 1006.9mb 36f 5f
1:48pm 10 22 mph 1006.9mb 36f 5f
1:42pm 10 18 mph 1006.7mb 36f 5f
1:36pm 13 18 mph 1006.5mb 36f 5f
1:30pm 15 23 mph 1006.5mb 36f 5f
1:24pm 10 17 mph 1006.6mb 36f 5f
1:18pm 11 21 mph 1006.5mb 36f 5f
1:12pm 14 20 mph 1006.4mb 36f 5f
1:06pm 14 23 mph 1006.4mb 36f 4f
1:00pm 14 22 mph 1006.3mb 36f 4f
12:54pm 14 22 mph 1006.2mb 36f 4f
12:48pm 13 21 mph 1006.3mb 36f 5f
12:42pm 15 22 mph 1006.2mb 35f 5f
12:36pm 13 21 mph 1006.3mb 36f 5f
12:30pm 16 21 mph 1006.2mb 36f 4f
12:24pm 10 18 mph 1006.2mb 35f 5f
12:18pm 13 17 mph 1006.3mb 35f 4f
12:12pm 11 20 mph 1006.3mb 35f 4f
12:06pm 11 17 mph 1006.3mb 36f 4f
12:00pm 13 20 mph 1006.3mb 36f 4f
11:54am 13 21 mph 1006.4mb 37f 5f
11:48am 18 23 mph 1006.3mb 37f 4f
11:42am 15 22 mph 1006.2mb 37f 4f
11:36am 16 22 mph 1006.3mb 37f 4f
11:30am 14 21 mph 1006.5mb 37f 4f
11:24am 14 18 mph 1006.4mb 37f 5f
11:18am 11 18 mph 1006.4mb 37f 5f
11:12am 13 22 mph 1006.4mb 37f 4f
11:06am 17 24 mph 1006.4mb 37f 4f
11:00am 14 21 mph 1006.5mb 37f 4f
10:54am 14 22 mph 1006.5mb 37f 3f
10:48am 14 22 mph 1006.5mb 37f 3f
10:42am 11 18 mph 1006.6mb 37f 3f
10:36am 15 24 mph 1006.7mb 37f 3f
10:30am 15 21 mph 1006.7mb 37f 3f
10:24am 13 22 mph 1006.7mb 37f 3f
10:18am 13 20 mph 1006.8mb 37f 3f
10:12am 11 20 mph 1006.8mb 37f 3f
10:06am 11 26 mph 1006.6mb 37f 3f
10:00am 13 20 mph 1006.5mb 37f 3f
9:54am 9 14 mph 1006.4mb 37f 3f
9:48am 13 21 mph 1006.2mb 37f 3f
9:42am 15 23 mph 1006mb 37f 3f
9:36am 13 17 mph 1005.8mb 37f 3f
9:30am 8 14 mph 1005.8mb 37f 3f
9:24am 14 18 mph 1005.6mb 37f 3f
9:18am 11 18 mph 1005.5mb 37f 3f
9:12am 13 20 mph 1005.4mb 37f 3f
9:06am 14 21 mph 1005.3mb 37f 3f
9:00am 14 20 mph 1005.1mb 37f 3f
8:54am 11 20 mph 1005mb 37f 3f
8:48am 9 15 mph 1004.9mb 37f 4f
8:42am 14 20 mph 1004.8mb 37f 4f
8:36am 10 18 mph 1004.7mb 37f 4f
8:30am 13 21 mph 1004.6mb 37f 3f
8:24am 11 16 mph 1004.5mb 37f 4f
8:18am 11 16 mph 1004.3mb 37f 4f
8:12am 10 16 mph 1004.2mb 37f 4f
8:06am 8 17 mph 1004.1mb 37f 4f
8:00am 11 17 mph 1004mb 37f 4f
7:54am 13 18 mph 1003.8mb 37f 4f
7:48am 10 16 mph 1003.9mb 37f 4f
7:42am 8 14 mph 1003.9mb 37f 4f
7:36am 10 17 mph 1003.7mb 37f 4f
7:30am 10 16 mph 1003.6mb 36f 4f
7:24am 9 17 mph 1003.5mb 36f 4f
7:18am 9 15 mph 1003.2mb 36f 4f
7:12am 10 16 mph 1003mb 36f 4f
7:06am 9 16 mph 1002.9mb 36f 4f
7:00am 9 14 mph 1002.9mb 35f 4f
6:54am 10 14 mph 1002.7mb 34f 4f
6:48am 10 16 mph 1002.5mb 31f 4f
6:42am 8 14 mph 1002.5mb 30f 4f
6:36am 11 15 mph 1002.3mb 30f 3f
6:30am 11 17 mph 1002.2mb 30f 4f
6:24am 9 16 mph 1002.1mb 29f 4f
6:18am 13 17 mph 1002mb 29f 3f
6:12am 14 17 mph 1001.9mb 29f 3f
6:06am 8 15 mph 1001.8mb 29f 4f
6:00am 7 15 mph 1001.7mb 29f 4f
5:54am 9 16 mph 1001.5mb 29f 4f
5:48am 9 16 mph 1001.5mb 29f 4f
5:42am 9 15 mph 1001.4mb 29f 4f
5:36am 13 17 mph 1001.3mb 29f 4f
5:30am 10 18 mph 1001.1mb 29f 4f
5:24am 14 20 mph 1001mb 30f 4f
5:18am 10 17 mph 1000.9mb 31f 4f
5:12am 9 17 mph 1001mb 31f 4f
5:06am 10 17 mph 1000.8mb 32f 4f
5:00am 8 18 mph 1000.8mb 32f 4f
4:54am 9 16 mph 1000.7mb 33f 4f
4:48am 13 18 mph 1000.6mb 33f 4f
4:42am 14 16 mph 1000.5mb 33f 4f
4:36am 10 16 mph 1000.4mb 33f 4f
4:30am 11 16 mph 1000.4mb 33f 4f
4:24am 9 17 mph 1000.4mb 33f 4f
4:18am 11 16 mph 1000.2mb 33f 4f
4:12am 10 15 mph 1000.1mb 33f 4f
4:06am 10 16 mph 1000.1mb 33f 4f
4:00am 11 18 mph 1000mb 33f 4f
3:54am 7 14 mph 1000mb 33f 4f
3:48am 10 15 mph 999.9mb 34f 4f
3:42am 10 17 mph 999.9mb 34f 4f
3:36am 10 17 mph 999.8mb 34f 4f
3:30am 13 17 mph 999.8mb 34f 4f
3:24am 11 20 mph 999.9mb 34f 4f
3:18am 9 18 mph 999.9mb 34f 4f
3:12am 10 15 mph 999.8mb 34f 5f
3:06am 9 14 mph 999.6mb 34f 5f
3:00am 10 16 mph 999.6mb 34f 5f
2:54am 10 15 mph 999.3mb 34f 5f
2:48am 11 17 mph 999.2mb 34f 5f
2:42am 8 16 mph 998.9mb 34f 5f
2:36am 11 18 mph 998.9mb 34f 5f
2:30am 9 14 mph 998.9mb 35f 5f
2:24am 10 17 mph 998.8mb 35f 5f
2:18am 9 17 mph 999mb 35f 5f
2:12am 10 17 mph 999.1mb 35f 5f
2:06am 14 20 mph 999.1mb 35f 5f
2:00am 11 20 mph 999.1mb 36f 5f
1:54am 10 16 mph 998.9mb 36f 5f
1:48am 11 16 mph 998.6mb 35f -
1:42am 9 17 mph 998.5mb 34f 6f
1:36am 13 18 mph 998.5mb 34f 6f
1:30am 13 16 mph 998.3mb 35f 6f
1:24am 14 20 mph 998.1mb 35f 6f
1:18am 13 18 mph 998mb 35f 6f
1:12am 13 20 mph 998mb 35f 6f
1:06am 14 20 mph 997.7mb 36f 6f
1:00am 11 17 mph 997.8mb 35f 6f
12:54am 14 18 mph 997.6mb 35f 6f
12:48am 11 20 mph 997.7mb 35f 7f
12:42am 13 20 mph 997.7mb 35f 7f
12:36am 14 18 mph 997.6mb 36f 7f
12:30am 14 20 mph 997.8mb 36f 7f
12:24am 10 15 mph 997.9mb 36f 7f
12:18am 10 16 mph 997.7mb 36f 8f
12:12am 10 14 mph 997.6mb 36f 8f
12:06am 7 16 mph 997.6mb 36f 8f
12:00am 10 15 mph 997.4mb 36f 8f
Sun 01/20 11:54pm 9 18 mph 997.4mb 37f 8f
11:48pm 11 18 mph 996.8mb 37f 8f
11:42pm 13 20 mph 996.6mb 37f 8f
11:36pm 14 20 mph 996.6mb 37f 8f
11:30pm 11 20 mph 996.5mb 37f 8f
11:24pm 14 17 mph 996.2mb 37f 8f
11:18pm 13 20 mph 996mb 37f 9f
11:12pm 13 22 mph 995.9mb 37f 9f
11:06pm 13 23 mph 995.7mb 37f 9f
11:00pm 15 21 mph 995.7mb 37f 9f
10:54pm 16 20 mph 995.6mb 37f 9f
10:48pm 13 20 mph 995.7mb 37f 10f
10:42pm 16 24 mph 995.7mb 37f 10f
10:36pm 14 24 mph 995.7mb 37f 10f
10:30pm 16 23 mph 995.7mb 37f 11f
10:24pm 15 23 mph 995.8mb 37f 11f
10:18pm 14 22 mph 995.5mb 37f 12f
10:12pm 11 21 mph 995.3mb 37f 13f
10:06pm 15 23 mph 994.9mb 37f 13f
10:00pm 10 14 mph 994.9mb 37f 14f
9:54pm 9 14 mph 994.8mb 37f 15f
9:48pm 9 14 mph 994.8mb 37f 15f
9:42pm 9 14 mph 994.6mb 37f 15f
9:36pm 9 14 mph 994.5mb 37f 15f
9:30pm 8 14 mph 994.4mb 37f 16f
9:24pm 13 18 mph 994.1mb 37f 16f
9:18pm 10 18 mph 994mb 38f 16f
9:12pm 11 16 mph 993.9mb 38f 16f
9:06pm 8 17 mph 993.8mb 38f 17f
9:00pm 10 15 mph 993.7mb 38f 17f
8:54pm 7 14 mph 993.6mb 38f 18f
8:48pm 8 11 mph 993.5mb 38f 19f
8:42pm 6 11 mph 993.5mb 38f 19f
8:36pm 8 14 mph 993.5mb 38f 19f
8:30pm 11 15 mph 993.4mb 38f 20f
8:24pm 7 10 mph 993.5mb 38f 20f
8:18pm 5 6 mph 993.4mb 38f 20f
8:12pm 5 6 mph 993.5mb 38f 20f
8:06pm 3 6 mph 993.5mb 38f 20f
8:00pm 2 5 mph 993.5mb 38f 20f
7:48pm 5 6 mph 993.4mb 38f 19f
7:42pm 5 7 mph 993.2mb 38f 19f
7:36pm 6 9 mph 993.1mb 37f 19f
7:30pm 7 10 mph 992.9mb 37f 19f
7:24pm 9 11 mph 992.6mb 37f 19f
7:18pm 8 10 mph 992.5mb 38f 19f
7:12pm 6 11 mph 992.6mb 37f 19f
7:06pm 7 9 mph 992.4mb 37f 19f
7:00pm 6 9 mph 992.4mb 37f 18f
6:54pm 7 10 mph 992.2mb 36f 18f
6:48pm 9 10 mph 992.1mb 35f 18f
6:42pm 9 11 mph 992mb 33f 18f
6:36pm 8 11 mph 992.1mb 32f 18f
6:30pm 8 10 mph 992.3mb 30f 17f
6:24pm 8 14 mph 992.6mb 29f 17f
6:18pm 13 18 mph 992.5mb 29f 17f
6:12pm 11 18 mph 992.8mb 29f 17f
6:06pm 10 14 mph 992.7mb 29f 17f
6:00pm 11 14 mph 992.9mb 29f 17f
5:54pm 13 18 mph 992.7mb 29f 17f
5:48pm 13 16 mph 992.4mb 29f 17f
5:42pm 13 16 mph 992.4mb 29f 16f
5:36pm 11 18 mph 992.3mb 29f 16f
5:30pm 14 17 mph 991.9mb 29f 16f
5:24pm 14 20 mph 991.8mb 29f 16f
5:18pm 14 20 mph 991.8mb 29f 16f
5:12pm 15 20 mph 991.7mb 29f 16f
5:06pm 18 22 mph 991.7mb 29f 15f
5:00pm 15 21 mph 992mb 31f 14f
4:54pm 16 23 mph 992.3mb 31f 14f
4:48pm 21 24 mph 992.3mb 32f 14f
4:42pm 18 22 mph 992.4mb 32f 14f
4:36pm 18 28 mph 992.5mb 32f 14f
4:30pm 17 23 mph 992.7mb 32f 14f
4:24pm 17 23 mph 992.7mb 32f 13f
4:18pm 15 22 mph 992.7mb 32f 13f
4:12pm 14 22 mph 992.9mb 32f 13f
4:06pm 13 18 mph 993.2mb 32f 13f
4:00pm 16 21 mph 993mb 33f 12f
3:54pm 16 21 mph 992.8mb 33f 12f
3:48pm 16 24 mph 992.7mb 33f 12f
3:42pm 18 24 mph 992.5mb 33f 12f
3:36pm 16 21 mph 992.6mb 33f 12f
3:30pm 17 26 mph 992.5mb 33f 12f
3:24pm 17 23 mph 992.3mb 33f 12f
3:18pm 16 22 mph 992.8mb 33f 12f
3:12pm 13 18 mph 992.9mb 33f 12f
3:06pm 15 23 mph 992.1mb 33f 12f
3:00pm 17 24 mph 991.6mb 33f 12f
2:54pm 13 21 mph 992mb 33f 12f
2:48pm 14 23 mph 991.7mb 33f 12f
2:42pm 18 23 mph 991.5mb 33f 12f
2:36pm 17 22 mph 991.9mb 33f 11f
2:30pm 14 22 mph 992.1mb 33f 12f
2:24pm 16 25 mph 992mb 33f 12f
2:18pm 14 20 mph 991.8mb 34f 11f
2:12pm 16 21 mph 991.8mb 34f 11f
2:06pm 14 21 mph 991.7mb 34f 11f
2:00pm 17 23 mph 991.7mb 33f 12f
1:54pm 18 23 mph 991.9mb 32f 11f
1:48pm 15 21 mph 992.1mb 31f 12f
1:42pm 17 23 mph 992.3mb 31f 11f
1:36pm 15 20 mph 992.5mb 31f 12f
1:30pm 17 22 mph 992.5mb 31f 11f
1:24pm 17 23 mph 992.7mb 31f 11f
1:18pm 16 22 mph 992.3mb 32f 11f
1:12pm 16 24 mph 993.4mb 32f 12f
1:06pm 16 24 mph 993.6mb 32f 11f
1:00pm 17 24 mph 994.3mb 32f 11f
12:54pm 17 23 mph 994.5mb 32f 12f
12:48pm 18 25 mph 994.8mb 33f 12f
12:42pm 16 22 mph 995.1mb 33f 12f
12:36pm 17 24 mph 995.6mb 33f 12f
12:30pm 18 22 mph 995.6mb 34f 12f
12:24pm 14 17 mph 996.4mb 34f 12f
12:18pm 15 22 mph 996.6mb 34f 12f
12:12pm 17 23 mph 996.6mb 34f 12f
12:06pm 16 28 mph 996.5mb 34f 11f
12:00pm 21 29 mph 996mb 34f 11f
11:54am 22 26 mph 996.3mb 35f 11f
11:48am 18 23 mph 996.7mb 35f 12f
11:42am 18 26 mph 997.2mb 35f 12f
11:36am 18 25 mph 997.3mb 36f 11f
11:30am 16 22 mph 997.7mb 36f 11f
11:24am 18 22 mph 997.8mb 36f 10f
11:18am 15 22 mph 997.9mb 36f 10f
11:12am 18 26 mph 998.5mb 36f 10f
11:06am 15 17 mph 998.5mb 36f 10f
11:00am 15 25 mph 999.9mb 37f 10f
10:54am 18 26 mph 1000.2mb 37f 10f
10:48am 18 23 mph 999.9mb 37f 9f
10:42am 20 24 mph 999.9mb 37f 10f
10:36am 17 24 mph 1000mb 37f 10f
10:30am 22 30 mph 1000.2mb 37f 10f
10:24am 20 28 mph 1000.1mb 37f 10f
10:18am 24 29 mph 999.9mb 37f 10f
10:12am 22 32 mph 1000.2mb 37f 9f
10:06am 23 29 mph 1000.1mb 37f 10f
10:00am 21 28 mph 1000.5mb 37f 9f
9:54am 20 24 mph 1000.9mb 37f 10f
9:48am 18 26 mph 1000.8mb 37f 10f
9:42am 21 25 mph 1001mb 37f 10f
9:36am 20 26 mph 1001.2mb 37f 10f
9:30am 23 29 mph 1001.3mb 37f 10f
9:24am 25 33 mph 1001.5mb 37f 9f
9:18am 22 26 mph 1002.2mb 37f 9f
9:12am 20 28 mph 1003.1mb 37f 9f
9:06am 20 25 mph 1003.1mb 37f 9f
9:00am 22 25 mph 1003.3mb 37f 9f
8:54am 18 25 mph 1003.8mb 37f 10f
8:48am 21 26 mph 1004mb 37f 9f
8:42am 17 26 mph 1004.7mb 37f 9f
8:36am 21 29 mph 1004.8mb 37f 9f
8:30am 22 28 mph 1004.7mb 37f 9f
8:24am 13 20 mph 1005.8mb 37f 10f
8:18am 15 23 mph 1005.9mb 37f 10f
8:12am 20 25 mph 1006.1mb 37f 10f
8:06am 17 22 mph 1006.6mb 37f 10f
8:00am 20 25 mph 1006.9mb 37f 10f
7:54am 17 22 mph 1007.1mb 37f 10f
7:48am 17 22 mph 1007.3mb 37f 10f
7:42am 17 21 mph 1007.3mb 37f 10f
7:36am 17 24 mph 1007.5mb 37f 10f
7:30am 20 23 mph 1007.6mb 37f 10f
7:24am 16 22 mph 1007.9mb 37f 10f
7:18am 16 21 mph 1008.1mb 37f 10f
7:12am 18 26 mph 1008.2mb 37f 10f
7:06am 18 24 mph 1008.3mb 37f 10f
7:00am 20 26 mph 1008.4mb 37f 10f
6:54am 15 22 mph 1008.7mb 37f 11f
6:48am 17 22 mph 1008.9mb 37f 10f
6:42am 17 24 mph 1008.9mb 37f 10f
6:36am 16 21 mph 1009.1mb 37f 11f
6:30am 16 26 mph 1009.1mb 37f 11f
6:24am 21 26 mph 1008.9mb 37f 11f
6:18am 18 28 mph 1009.3mb 37f 11f
6:12am 20 25 mph 1009.7mb 37f 11f
6:06am 18 24 mph 1010mb 37f 11f
6:00am 18 23 mph 1010.5mb 36f 11f
5:54am 20 26 mph 1011mb 36f 11f
5:48am 18 25 mph 1011.2mb 35f 11f
5:42am 17 22 mph 1011.8mb 33f 11f
5:36am 21 28 mph 1011.6mb 31f 11f
5:30am 16 23 mph 1011.8mb 31f 12f
5:24am 18 23 mph 1012.1mb 31f 11f
5:18am 18 26 mph 1012.2mb 31f 11f
5:12am 18 24 mph 1012.5mb 32f 11f
5:06am 18 22 mph 1012.8mb 32f 11f
5:00am 17 24 mph 1013.1mb 32f 11f
4:54am 17 22 mph 1013.6mb 32f 11f
4:48am 16 23 mph 1013.8mb 32f 11f
4:42am 15 21 mph 1014mb 32f 11f
4:36am 18 23 mph 1014.2mb 32f 12f
4:30am 16 20 mph 1014.5mb 32f 12f
4:24am 15 20 mph 1014.6mb 32f 12f
4:18am 15 20 mph 1014.7mb 32f 12f
4:12am 14 22 mph 1015.1mb 32f 12f
4:06am 16 22 mph 1015.3mb 32f 13f
4:00am 16 21 mph 1015.6mb 32f 13f
3:54am 15 18 mph 1015.8mb 32f 13f
3:48am 15 22 mph 1015.8mb 33f 13f
3:42am 16 21 mph 1015.9mb 33f 13f
3:36am 13 18 mph 1016.3mb 33f 13f
3:30am 14 18 mph 1016.3mb 33f 13f
3:24am 14 17 mph 1016.7mb 33f 14f
3:18am 14 18 mph 1016.9mb 33f 14f
3:12am 14 16 mph 1017.2mb 33f 14f
3:06am 13 17 mph 1017.6mb 33f 14f
3:00am 14 18 mph 1017.8mb 33f 15f
2:54am 13 17 mph 1017.9mb 34f 15f
2:48am 11 16 mph 1017.8mb 34f 15f
2:42am 14 20 mph 1017.5mb 34f 14f
2:36am 16 18 mph 1017.6mb 34f 14f
2:30am 15 20 mph 1018mb 34f 14f
2:24am 17 22 mph 1017.8mb 34f 14f
2:18am 18 22 mph 1018.1mb 34f 14f